sensor_id;sensor_type;location;lat;lon;timestamp;pressure;altitude;pressure_sealevel;temperature;humidity
38718;BME280;24468;52.128;9.278;2024-01-30T00:01:43;101942.78;;;6.42;100.00
38718;BME280;24468;52.128;9.278;2024-01-30T00:04:08;101934.78;;;6.31;100.00
38718;BME280;24468;52.128;9.278;2024-01-30T00:06:34;101937.44;;;6.33;100.00
38718;BME280;24468;52.128;9.278;2024-01-30T00:08:59;101934.72;;;6.39;100.00
38718;BME280;24468;52.128;9.278;2024-01-30T00:11:25;101936.66;;;6.09;100.00
38718;BME280;24468;52.128;9.278;2024-01-30T00:13:52;101943.75;;;6.21;100.00
38718;BME280;24468;52.128;9.278;2024-01-30T00:16:24;101937.47;;;6.30;100.00
38718;BME280;24468;52.128;9.278;2024-01-30T00:18:53;101949.03;;;6.41;100.00
38718;BME280;24468;52.128;9.278;2024-01-30T00:21:20;101944.72;;;6.06;100.00
38718;BME280;24468;52.128;9.278;2024-01-30T00:23:46;101948.22;;;6.20;100.00
38718;BME280;24468;52.128;9.278;2024-01-30T00:26:12;101942.88;;;6.16;100.00
38718;BME280;24468;52.128;9.278;2024-01-30T00:28:40;101948.19;;;6.22;100.00
38718;BME280;24468;52.128;9.278;2024-01-30T00:31:06;101943.69;;;6.35;100.00
38718;BME280;24468;52.128;9.278;2024-01-30T00:33:32;101948.16;;;6.37;100.00
38718;BME280;24468;52.128;9.278;2024-01-30T00:35:57;101945.44;;;6.39;100.00
38718;BME280;24468;52.128;9.278;2024-01-30T00:38:23;101944.53;;;6.46;100.00
38718;BME280;24468;52.128;9.278;2024-01-30T00:40:48;101942.72;;;6.51;100.00
38718;BME280;24468;52.128;9.278;2024-01-30T00:43:15;101940.03;;;6.50;100.00
38718;BME280;24468;52.128;9.278;2024-01-30T00:45:41;101946.31;;;6.50;100.00
38718;BME280;24468;52.128;9.278;2024-01-30T00:48:06;101942.75;;;6.39;100.00
38718;BME280;24468;52.128;9.278;2024-01-30T00:50:32;101950.78;;;6.43;100.00
38718;BME280;24468;52.128;9.278;2024-01-30T00:52:57;101939.13;;;6.54;100.00
38718;BME280;24468;52.128;9.278;2024-01-30T00:55:23;101940.94;;;6.53;100.00
38718;BME280;24468;52.128;9.278;2024-01-30T00:57:48;101946.31;;;6.50;100.00
38718;BME280;24468;52.128;9.278;2024-01-30T01:00:14;101946.31;;;6.47;100.00
38718;BME280;24468;52.128;9.278;2024-01-30T01:02:42;101947.22;;;6.48;100.00
38718;BME280;24468;52.128;9.278;2024-01-30T01:05:08;101943.66;;;6.45;100.00
38718;BME280;24468;52.128;9.278;2024-01-30T01:07:34;101941.84;;;6.49;100.00
38718;BME280;24468;52.128;9.278;2024-01-30T01:09:59;101940.94;;;6.49;100.00
38718;BME280;24468;52.128;9.278;2024-01-30T01:12:25;101946.25;;;6.58;100.00
38718;BME280;24468;52.128;9.278;2024-01-30T01:14:51;101941.81;;;6.58;100.00
38718;BME280;24468;52.128;9.278;2024-01-30T01:17:16;101945.41;;;6.48;100.00
38718;BME280;24468;52.128;9.278;2024-01-30T01:19:43;101951.66;;;6.47;100.00
38718;BME280;24468;52.128;9.278;2024-01-30T01:22:09;101947.22;;;6.48;100.00
38718;BME280;24468;52.128;9.278;2024-01-30T01:24:36;101948.03;;;6.57;100.00
38718;BME280;24468;52.128;9.278;2024-01-30T01:27:01;101948.06;;;6.56;100.00
38718;BME280;24468;52.128;9.278;2024-01-30T01:29:27;101946.22;;;6.65;100.00
38718;BME280;24468;52.128;9.278;2024-01-30T01:31:58;101942.66;;;6.60;100.00
38718;BME280;24468;52.128;9.278;2024-01-30T01:34:24;101944.50;;;6.49;100.00
38718;BME280;24468;52.128;9.278;2024-01-30T01:36:50;101949.88;;;6.49;100.00
38718;BME280;24468;52.128;9.278;2024-01-30T01:39:17;101944.59;;;6.37;100.00
38718;BME280;24468;52.128;9.278;2024-01-30T01:41:43;101941.94;;;6.24;100.00
38718;BME280;24468;52.128;9.278;2024-01-30T01:44:09;101947.28;;;6.29;100.00
38718;BME280;24468;52.128;9.278;2024-01-30T01:46:35;101936.50;;;6.46;100.00
38718;BME280;24468;52.128;9.278;2024-01-30T01:49:02;101937.31;;;6.59;100.00
38718;BME280;24468;52.128;9.278;2024-01-30T01:51:30;101939.03;;;6.69;100.00
38718;BME280;24468;52.128;9.278;2024-01-30T01:53:57;101931.84;;;6.74;100.00
38718;BME280;24468;52.128;9.278;2024-01-30T01:56:23;101929.22;;;6.65;100.00
38718;BME280;24468;52.128;9.278;2024-01-30T01:58:50;101923.16;;;6.32;100.00
38718;BME280;24468;52.128;9.278;2024-01-30T02:01:19;101926.81;;;6.11;100.00
38718;BME280;24468;52.128;9.278;2024-01-30T02:03:46;101926.69;;;6.36;100.00
38718;BME280;24468;52.128;9.278;2024-01-30T02:06:13;101922.25;;;6.35;100.00
38718;BME280;24468;52.128;9.278;2024-01-30T02:08:40;101918.72;;;6.25;100.00
38718;BME280;24468;52.128;9.278;2024-01-30T02:11:06;101924.84;;;6.47;100.00
38718;BME280;24468;52.128;9.278;2024-01-30T02:13:32;101915.91;;;6.51;100.00
38718;BME280;24468;52.128;9.278;2024-01-30T02:15:57;101912.34;;;6.51;100.00
38718;BME280;24468;52.128;9.278;2024-01-30T02:18:23;101910.53;;;6.54;100.00
38718;BME280;24468;52.128;9.278;2024-01-30T02:20:49;101912.31;;;6.58;100.00
38718;BME280;24468;52.128;9.278;2024-01-30T02:23:16;101903.41;;;6.53;100.00
38718;BME280;24468;52.128;9.278;2024-01-30T02:25:42;101906.09;;;6.47;100.00
38718;BME280;24468;52.128;9.278;2024-01-30T02:28:14;101903.38;;;6.56;100.00
38718;BME280;24468;52.128;9.278;2024-01-30T02:30:40;101901.59;;;6.52;100.00
38718;BME280;24468;52.128;9.278;2024-01-30T02:33:06;101888.19;;;6.54;100.00
38718;BME280;24468;52.128;9.278;2024-01-30T02:35:32;101895.50;;;6.24;100.00
38718;BME280;24468;52.128;9.278;2024-01-30T02:37:58;101891.88;;;6.34;100.00
38718;BME280;24468;52.128;9.278;2024-01-30T02:40:24;101890.22;;;6.12;100.00
38718;BME280;24468;52.128;9.278;2024-01-30T02:42:49;101884.88;;;6.04;100.00
38718;BME280;24468;52.128;9.278;2024-01-30T02:45:15;101884.91;;;5.87;100.00
38718;BME280;24468;52.128;9.278;2024-01-30T02:47:41;101884.91;;;5.95;100.00
38718;BME280;24468;52.128;9.278;2024-01-30T02:50:06;101879.47;;;6.18;100.00
38718;BME280;24468;52.128;9.278;2024-01-30T02:52:32;101875.97;;;5.97;100.00
38718;BME280;24468;52.128;9.278;2024-01-30T02:54:58;101875.06;;;5.91;100.00
38718;BME280;24468;52.128;9.278;2024-01-30T02:57:23;101870.63;;;5.88;100.00
38718;BME280;24468;52.128;9.278;2024-01-30T02:59:49;101875.13;;;5.77;100.00
38718;BME280;24468;52.128;9.278;2024-01-30T03:02:14;101871.50;;;5.89;100.00
38718;BME280;24468;52.128;9.278;2024-01-30T03:04:43;101866.16;;;6.01;100.00
38718;BME280;24468;52.128;9.278;2024-01-30T03:07:09;101868.81;;;5.99;100.00
38718;BME280;24468;52.128;9.278;2024-01-30T03:09:36;101863.44;;;6.07;100.00
38718;BME280;24468;52.128;9.278;2024-01-30T03:12:02;101867.03;;;6.06;100.00
38718;BME280;24468;52.128;9.278;2024-01-30T03:14:31;101863.41;;;6.10;100.00
38718;BME280;24468;52.128;9.278;2024-01-30T03:16:57;101863.41;;;6.06;100.00
38718;BME280;24468;52.128;9.278;2024-01-30T03:19:23;101858.13;;;5.96;100.00
38718;BME280;24468;52.128;9.278;2024-01-30T03:21:49;101850.03;;;6.06;100.00
38718;BME280;24468;52.128;9.278;2024-01-30T03:24:15;101850.00;;;6.09;100.00
38718;BME280;24468;52.128;9.278;2024-01-30T03:26:40;101849.13;;;6.08;100.00
38718;BME280;24468;52.128;9.278;2024-01-30T03:29:06;101857.16;;;6.14;100.00
38718;BME280;24468;52.128;9.278;2024-01-30T03:31:32;101852.69;;;6.09;100.00
38718;BME280;24468;52.128;9.278;2024-01-30T03:33:57;101848.16;;;6.23;100.00
38718;BME280;24468;52.128;9.278;2024-01-30T03:36:23;101844.56;;;6.24;100.00
38718;BME280;24468;52.128;9.278;2024-01-30T03:38:48;101845.47;;;6.26;100.00
38718;BME280;24468;52.128;9.278;2024-01-30T03:41:14;101850.81;;;6.28;100.00
38718;BME280;24468;52.128;9.278;2024-01-30T03:43:40;101839.19;;;6.29;100.00
38718;BME280;24468;52.128;9.278;2024-01-30T03:46:06;101840.13;;;6.21;100.00
38718;BME280;24468;52.128;9.278;2024-01-30T03:48:32;101840.13;;;6.21;100.00
38718;BME280;24468;52.128;9.278;2024-01-30T03:50:57;101844.56;;;6.24;100.00
38718;BME280;24468;52.128;9.278;2024-01-30T03:53:23;101835.63;;;6.25;100.00
38718;BME280;24468;52.128;9.278;2024-01-30T03:55:48;101844.56;;;6.22;100.00
38718;BME280;24468;52.128;9.278;2024-01-30T03:58:14;101839.22;;;6.22;100.00
38718;BME280;24468;52.128;9.278;2024-01-30T04:00:39;101834.78;;;6.17;100.00
38718;BME280;24468;52.128;9.278;2024-01-30T04:03:06;101832.97;;;6.22;100.00
38718;BME280;24468;52.128;9.278;2024-01-30T04:05:32;101826.78;;;6.15;100.00
38718;BME280;24468;52.128;9.278;2024-01-30T04:07:58;101835.63;;;6.27;100.00
38718;BME280;24468;52.128;9.278;2024-01-30T04:10:24;101835.72;;;6.14;100.00
38718;BME280;24468;52.128;9.278;2024-01-30T04:12:50;101828.50;;;6.22;100.00
38718;BME280;24468;52.128;9.278;2024-01-30T04:15:17;101837.47;;;6.18;100.00
38718;BME280;24468;52.128;9.278;2024-01-30T04:17:44;101830.38;;;6.08;100.00
38718;BME280;24468;52.128;9.278;2024-01-30T04:20:18;101829.50;;;6.09;100.00
38718;BME280;24468;52.128;9.278;2024-01-30T04:22:45;101827.69;;;6.14;100.00
38718;BME280;24468;52.128;9.278;2024-01-30T04:25:12;101827.66;;;6.11;100.00
38718;BME280;24468;52.128;9.278;2024-01-30T04:27:37;101829.50;;;6.09;100.00
38718;BME280;24468;52.128;9.278;2024-01-30T04:30:04;101825.88;;;6.18;100.00
38718;BME280;24468;52.128;9.278;2024-01-30T04:32:29;101830.34;;;6.17;100.00
38718;BME280;24468;52.128;9.278;2024-01-30T04:34:55;101821.47;;;6.06;100.00
38718;BME280;24468;52.128;9.278;2024-01-30T04:37:20;101819.72;;;5.96;100.00
38718;BME280;24468;52.128;9.278;2024-01-30T04:39:46;101818.81;;;6.00;100.00
38718;BME280;24468;52.128;9.278;2024-01-30T04:42:11;101821.53;;;5.88;100.00
38718;BME280;24468;52.128;9.278;2024-01-30T04:44:37;101821.56;;;5.82;100.00
38718;BME280;24468;52.128;9.278;2024-01-30T04:47:03;101821.56;;;5.72;100.00
38718;BME280;24468;52.128;9.278;2024-01-30T04:49:30;101823.38;;;5.67;100.00
38718;BME280;24468;52.128;9.278;2024-01-30T04:51:55;101822.47;;;5.76;100.00
38718;BME280;24468;52.128;9.278;2024-01-30T04:54:22;101818.94;;;5.66;100.00
38718;BME280;24468;52.128;9.278;2024-01-30T04:56:47;101812.72;;;5.55;100.00
38718;BME280;24468;52.128;9.278;2024-01-30T04:59:13;101816.28;;;5.60;100.00
38718;BME280;24468;52.128;9.278;2024-01-30T05:01:38;101817.16;;;5.64;100.00
38718;BME280;24468;52.128;9.278;2024-01-30T05:04:04;101816.25;;;5.63;100.00
38718;BME280;24468;52.128;9.278;2024-01-30T05:06:32;101823.41;;;5.63;100.00
38718;BME280;24468;52.128;9.278;2024-01-30T05:08:57;101831.41;;;5.69;100.00
38718;BME280;24468;52.128;9.278;2024-01-30T05:11:23;101816.22;;;5.72;100.00
38718;BME280;24468;52.128;9.278;2024-01-30T05:13:48;101819.72;;;5.90;100.00
38718;BME280;24468;52.128;9.278;2024-01-30T05:16:14;101829.56;;;5.83;100.00
38718;BME280;24468;52.128;9.278;2024-01-30T05:18:39;101824.19;;;5.86;100.00
38718;BME280;24468;52.128;9.278;2024-01-30T05:21:05;101820.63;;;5.96;100.00
38718;BME280;24468;52.128;9.278;2024-01-30T05:23:31;101822.41;;;5.88;100.00
38718;BME280;24468;52.128;9.278;2024-01-30T05:25:57;101821.50;;;5.97;100.00
38718;BME280;24468;52.128;9.278;2024-01-30T05:28:22;101817.00;;;6.00;100.00
38718;BME280;24468;52.128;9.278;2024-01-30T05:30:48;101816.16;;;5.98;100.00
38718;BME280;24468;52.128;9.278;2024-01-30T05:33:13;101822.41;;;5.94;100.00
38718;BME280;24468;52.128;9.278;2024-01-30T05:35:39;101827.69;;;6.08;100.00
38718;BME280;24468;52.128;9.278;2024-01-30T05:38:04;101827.69;;;6.14;100.00
38718;BME280;24468;52.128;9.278;2024-01-30T05:40:33;101823.19;;;6.18;100.00
38718;BME280;24468;52.128;9.278;2024-01-30T05:42:58;101824.06;;;6.20;100.00
38718;BME280;24468;52.128;9.278;2024-01-30T05:45:26;101819.56;;;6.27;100.00
38718;BME280;24468;52.128;9.278;2024-01-30T05:47:53;101821.41;;;6.15;100.00
38718;BME280;24468;52.128;9.278;2024-01-30T05:50:19;101813.34;;;6.18;100.00
38718;BME280;24468;52.128;9.278;2024-01-30T05:52:45;101816.06;;;6.11;100.00
38718;BME280;24468;52.128;9.278;2024-01-30T05:55:12;101814.31;;;6.05;100.00
38718;BME280;24468;52.128;9.278;2024-01-30T05:57:38;101809.88;;;5.99;100.00
38718;BME280;24468;52.128;9.278;2024-01-30T06:00:05;101818.78;;;6.05;100.00
38718;BME280;24468;52.128;9.278;2024-01-30T06:02:31;101805.41;;;6.06;100.00
38718;BME280;24468;52.128;9.278;2024-01-30T06:04:57;101804.44;;;6.13;100.00
38718;BME280;24468;52.128;9.278;2024-01-30T06:07:22;101803.59;;;6.10;100.00
38718;BME280;24468;52.128;9.278;2024-01-30T06:09:48;101800.91;;;6.10;100.00
38718;BME280;24468;52.128;9.278;2024-01-30T06:12:13;101811.63;;;6.10;100.00
38718;BME280;24468;52.128;9.278;2024-01-30T06:14:39;101807.13;;;6.13;100.00
38718;BME280;24468;52.128;9.278;2024-01-30T06:17:05;101812.50;;;6.10;100.00
38718;BME280;24468;52.128;9.278;2024-01-30T06:19:30;101801.75;;;6.13;100.00
38718;BME280;24468;52.128;9.278;2024-01-30T06:21:59;101796.38;;;6.16;100.00
38718;BME280;24468;52.128;9.278;2024-01-30T06:24:24;101799.97;;;6.20;100.00
38718;BME280;24468;52.128;9.278;2024-01-30T06:26:50;101796.34;;;6.24;100.00
38718;BME280;24468;52.128;9.278;2024-01-30T06:29:15;101798.09;;;6.30;100.00
38718;BME280;24468;52.128;9.278;2024-01-30T06:31:42;101803.47;;;6.27;100.00
38718;BME280;24468;52.128;9.278;2024-01-30T06:34:09;101804.38;;;6.24;100.00
38718;BME280;24468;52.128;9.278;2024-01-30T06:36:34;101802.59;;;6.26;100.00
38718;BME280;24468;52.128;9.278;2024-01-30T06:39:02;101798.94;;;6.33;100.00
38718;BME280;24468;52.128;9.278;2024-01-30T06:41:27;101800.72;;;6.36;100.00
38718;BME280;24468;52.128;9.278;2024-01-30T06:43:53;101790.00;;;6.36;100.00
38718;BME280;24468;52.128;9.278;2024-01-30T06:46:18;101798.94;;;6.33;100.00
38718;BME280;24468;52.128;9.278;2024-01-30T06:48:44;101803.44;;;6.33;100.00
38718;BME280;24468;52.128;9.278;2024-01-30T06:51:11;101799.88;;;6.29;100.00
38718;BME280;24468;52.128;9.278;2024-01-30T06:53:37;101810.63;;;6.26;100.00
38718;BME280;24468;52.128;9.278;2024-01-30T06:56:03;101802.53;;;6.34;100.00
38718;BME280;24468;52.128;9.278;2024-01-30T06:58:28;101799.88;;;6.32;100.00
38718;BME280;24468;52.128;9.278;2024-01-30T07:00:54;101807.91;;;6.34;100.00
38718;BME280;24468;52.128;9.278;2024-01-30T07:03:20;101807.00;;;6.36;100.00
38718;BME280;24468;52.128;9.278;2024-01-30T07:05:46;101802.53;;;6.37;100.00
38718;BME280;24468;52.128;9.278;2024-01-30T07:08:11;101806.09;;;6.36;100.00
38718;BME280;24468;52.128;9.278;2024-01-30T07:10:37;101812.34;;;6.38;100.00
38718;BME280;24468;52.128;9.278;2024-01-30T07:13:02;101802.53;;;6.31;100.00
38718;BME280;24468;52.128;9.278;2024-01-30T07:15:30;101800.75;;;6.34;100.00
38718;BME280;24468;52.128;9.278;2024-01-30T07:17:55;101792.66;;;6.42;100.00
38718;BME280;24468;52.128;9.278;2024-01-30T07:20:21;101802.50;;;6.40;100.00
38718;BME280;24468;52.128;9.278;2024-01-30T07:22:47;101803.34;;;6.48;100.00
38718;BME280;24468;52.128;9.278;2024-01-30T07:25:13;101803.34;;;6.48;100.00
38718;BME280;24468;52.128;9.278;2024-01-30T07:27:38;101805.94;;;6.57;100.00
38718;BME280;24468;52.128;9.278;2024-01-30T07:30:05;101806.84;;;6.55;100.00
38718;BME280;24468;52.128;9.278;2024-01-30T07:32:31;101797.88;;;6.59;100.00
38718;BME280;24468;52.128;9.278;2024-01-30T07:34:57;101797.84;;;6.63;100.00
38718;BME280;24468;52.128;9.278;2024-01-30T07:37:22;101798.66;;;6.73;100.00
38718;BME280;24468;52.128;9.278;2024-01-30T07:39:48;101788.84;;;6.71;100.00
38718;BME280;24468;52.128;9.278;2024-01-30T07:42:14;101792.34;;;6.79;100.00
38718;BME280;24468;52.128;9.278;2024-01-30T07:44:39;101792.34;;;6.80;100.00
38718;BME280;24468;52.128;9.278;2024-01-30T07:47:05;101795.81;;;6.92;100.00
38718;BME280;24468;52.128;9.278;2024-01-30T07:49:31;101787.78;;;6.92;100.00
38718;BME280;24468;52.128;9.278;2024-01-30T07:51:57;101791.31;;;6.94;100.00
38718;BME280;24468;52.128;9.278;2024-01-30T07:54:23;101794.00;;;6.95;100.00
38718;BME280;24468;52.128;9.278;2024-01-30T07:56:48;101789.41;;;7.06;100.00
38718;BME280;24468;52.128;9.278;2024-01-30T07:59:14;101790.34;;;7.01;100.00
38718;BME280;24468;52.128;9.278;2024-01-30T08:01:41;101794.00;;;6.97;100.00
38718;BME280;24468;52.128;9.278;2024-01-30T08:04:06;101786.06;;;6.81;100.00
38718;BME280;24468;52.128;9.278;2024-01-30T08:06:32;101799.31;;;6.98;100.00
38718;BME280;24468;52.128;9.278;2024-01-30T08:08:58;101804.50;;;7.18;100.00
38718;BME280;24468;52.128;9.278;2024-01-30T08:11:24;101804.56;;;7.13;100.00
38718;BME280;24468;52.128;9.278;2024-01-30T08:13:53;101807.22;;;7.15;100.00
38718;BME280;24468;52.128;9.278;2024-01-30T08:16:18;101807.06;;;7.30;100.00
38718;BME280;24468;52.128;9.278;2024-01-30T08:18:44;101811.44;;;7.41;100.00
38718;BME280;24468;52.128;9.278;2024-01-30T08:21:09;101809.66;;;7.38;100.00
38718;BME280;24468;52.128;9.278;2024-01-30T08:23:35;101809.59;;;7.43;100.00
38718;BME280;24468;52.128;9.278;2024-01-30T08:26:00;101809.59;;;7.44;100.00
38718;BME280;24468;52.128;9.278;2024-01-30T08:28:26;101800.63;;;7.47;100.00
38718;BME280;24468;52.128;9.278;2024-01-30T08:30:52;101804.91;;;7.62;100.00
38718;BME280;24468;52.128;9.278;2024-01-30T08:33:18;101807.50;;;7.68;100.00
38718;BME280;24468;52.128;9.278;2024-01-30T08:35:43;101811.94;;;7.73;100.00
38718;BME280;24468;52.128;9.278;2024-01-30T08:38:09;101810.00;;;7.85;100.00
38718;BME280;24468;52.128;9.278;2024-01-30T08:40:35;101811.78;;;7.86;100.00
38718;BME280;24468;52.128;9.278;2024-01-30T08:43:00;101799.97;;;7.99;100.00
38718;BME280;24468;52.128;9.278;2024-01-30T08:45:26;101790.94;;;8.05;100.00
38718;BME280;24468;52.128;9.278;2024-01-30T08:47:51;101793.72;;;7.97;100.00
38718;BME280;24468;52.128;9.278;2024-01-30T08:50:17;101794.53;;;8.04;100.00
38718;BME280;24468;52.128;9.278;2024-01-30T08:52:43;101794.53;;;8.02;100.00
38718;BME280;24468;52.128;9.278;2024-01-30T08:55:09;101791.66;;;8.14;100.00
38718;BME280;24468;52.128;9.278;2024-01-30T08:57:34;101796.97;;;8.20;100.00
38718;BME280;24468;52.128;9.278;2024-01-30T09:00:00;101794.97;;;8.35;100.00
38718;BME280;24468;52.128;9.278;2024-01-30T09:02:27;101796.59;;;8.48;100.00
38718;BME280;24468;52.128;9.278;2024-01-30T09:04:53;101785.78;;;8.50;100.00
38718;BME280;24468;52.128;9.278;2024-01-30T09:07:18;101789.19;;;8.62;100.00
38718;BME280;24468;52.128;9.278;2024-01-30T09:09:44;101783.84;;;8.59;100.00
38718;BME280;24468;52.128;9.278;2024-01-30T09:12:10;101790.94;;;8.65;100.00
38718;BME280;24468;52.128;9.278;2024-01-30T09:14:38;101791.72;;;8.72;100.00
38718;BME280;24468;52.128;9.278;2024-01-30T09:17:04;101791.41;;;8.88;100.00
38718;BME280;24468;52.128;9.278;2024-01-30T09:19:30;101800.31;;;8.94;100.00
38718;BME280;24468;52.128;9.278;2024-01-30T09:21:56;101796.84;;;8.85;100.00
38718;BME280;24468;52.128;9.278;2024-01-30T09:24:22;101800.97;;;9.06;100.00
38718;BME280;24468;52.128;9.278;2024-01-30T09:26:47;101802.69;;;9.12;100.00
38718;BME280;24468;52.128;9.278;2024-01-30T09:29:13;101808.63;;;9.31;100.00
38718;BME280;24468;52.128;9.278;2024-01-30T09:31:38;101808.53;;;9.35;100.00
38718;BME280;24468;52.128;9.278;2024-01-30T09:34:04;101811.91;;;9.47;100.00
38718;BME280;24468;52.128;9.278;2024-01-30T09:36:29;101805.38;;;9.60;100.00
38718;BME280;24468;52.128;9.278;2024-01-30T09:38:55;101809.00;;;9.57;100.00
38718;BME280;24468;52.128;9.278;2024-01-30T09:41:24;101812.31;;;9.70;100.00
38718;BME280;24468;52.128;9.278;2024-01-30T09:43:51;101807.13;;;9.61;100.00
38718;BME280;24468;52.128;9.278;2024-01-30T09:46:17;101807.13;;;9.60;100.00
38718;BME280;24468;52.128;9.278;2024-01-30T09:48:46;101809.66;;;9.69;100.00
38718;BME280;24468;52.128;9.278;2024-01-30T09:51:15;101807.88;;;9.68;100.00
38718;BME280;24468;52.128;9.278;2024-01-30T09:53:42;101806.69;;;9.83;100.00
38718;BME280;24468;52.128;9.278;2024-01-30T09:56:09;101804.66;;;9.92;100.00
38718;BME280;24468;52.128;9.278;2024-01-30T09:58:35;101803.53;;;10.04;100.00
38718;BME280;24468;52.128;9.278;2024-01-30T10:01:00;101797.84;;;10.16;100.00
38718;BME280;24468;52.128;9.278;2024-01-30T10:03:26;101796.25;;;10.09;100.00
38718;BME280;24468;52.128;9.278;2024-01-30T10:05:52;101789.47;;;10.32;100.00
38718;BME280;24468;52.128;9.278;2024-01-30T10:08:18;101774.59;;;10.51;100.00
38718;BME280;24468;52.128;9.278;2024-01-30T10:10:47;101780.53;;;10.28;100.00
38718;BME280;24468;52.128;9.278;2024-01-30T10:13:12;101776.78;;;10.34;100.00
38718;BME280;24468;52.128;9.278;2024-01-30T10:15:38;101775.81;;;10.38;100.00
38718;BME280;24468;52.128;9.278;2024-01-30T10:18:05;101772.69;;;10.16;100.00
38718;BME280;24468;52.128;9.278;2024-01-30T10:20:34;101779.53;;;9.92;100.00
38718;BME280;24468;52.128;9.278;2024-01-30T10:22:59;101787.94;;;10.18;100.00
38718;BME280;24468;52.128;9.278;2024-01-30T10:25:28;101779.75;;;10.23;100.00
38718;BME280;24468;52.128;9.278;2024-01-30T10:27:54;101775.09;;;10.30;100.00
38718;BME280;24468;52.128;9.278;2024-01-30T10:30:21;101767.94;;;10.29;100.00
38718;BME280;24468;52.128;9.278;2024-01-30T10:32:47;101774.28;;;10.24;100.00
38718;BME280;24468;52.128;9.278;2024-01-30T10:35:13;101777.81;;;10.28;100.00
38718;BME280;24468;52.128;9.278;2024-01-30T10:37:38;101775.97;;;10.32;100.00
38718;BME280;24468;52.128;9.278;2024-01-30T10:40:05;101771.59;;;10.63;100.00
38718;BME280;24468;52.128;9.278;2024-01-30T10:42:32;101766.78;;;10.39;100.00
38718;BME280;24468;52.128;9.278;2024-01-30T10:45:11;101764.88;;;10.44;100.00
38718;BME280;24468;52.128;9.278;2024-01-30T10:47:50;101758.41;;;10.51;100.00
38718;BME280;24468;52.128;9.278;2024-01-30T10:50:16;101754.31;;;10.71;100.00
38718;BME280;24468;52.128;9.278;2024-01-30T10:52:42;101755.44;;;10.96;100.00
38718;BME280;24468;52.128;9.278;2024-01-30T10:55:10;101755.34;;;10.99;100.00
38718;BME280;24468;52.128;9.278;2024-01-30T10:57:36;101768.06;;;10.96;100.00
38718;BME280;24468;52.128;9.278;2024-01-30T11:00:10;101752.22;;;10.82;100.00
38718;BME280;24468;52.128;9.278;2024-01-30T11:02:42;101767.81;;;11.05;100.00
38718;BME280;24468;52.128;9.278;2024-01-30T11:05:09;101755.06;;;11.10;100.00
38718;BME280;24468;52.128;9.278;2024-01-30T11:07:34;101761.13;;;11.20;100.00
38718;BME280;24468;52.128;9.278;2024-01-30T11:10:03;101759.09;;;11.28;100.00
38718;BME280;24468;52.128;9.278;2024-01-30T11:12:33;101767.97;;;11.33;100.00
38718;BME280;24468;52.128;9.278;2024-01-30T11:15:06;101767.69;;;11.42;100.00
38718;BME280;24468;52.128;9.278;2024-01-30T11:20:30;101756.09;;;11.06;100.00
38718;BME280;24468;52.128;9.278;2024-01-30T11:22:57;101760.88;;;11.60;100.00
38718;BME280;24468;52.128;9.278;2024-01-30T11:25:24;101747.34;;;11.91;100.00
38718;BME280;24468;52.128;9.278;2024-01-30T11:27:54;101747.22;;;11.96;100.00
38718;BME280;24468;52.128;9.278;2024-01-30T11:30:29;101743.00;;;11.54;100.00
38718;BME280;24468;52.128;9.278;2024-01-30T11:33:09;101740.03;;;11.32;100.00
38718;BME280;24468;52.128;9.278;2024-01-30T11:35:38;101736.16;;;11.74;100.00
38718;BME280;24468;52.128;9.278;2024-01-30T11:38:07;101724.19;;;11.81;100.00
38718;BME280;24468;52.128;9.278;2024-01-30T11:40:34;101727.28;;;11.69;100.00
38718;BME280;24468;52.128;9.278;2024-01-30T11:43:02;101718.31;;;11.67;100.00
38718;BME280;24468;52.128;9.278;2024-01-30T11:45:28;101713.69;;;12.01;100.00
38718;BME280;24468;52.128;9.278;2024-01-30T11:47:54;101707.09;;;11.80;100.00
38718;BME280;24468;52.128;9.278;2024-01-30T11:50:20;101705.91;;;12.19;100.00
38718;BME280;24468;52.128;9.278;2024-01-30T11:52:46;101704.31;;;12.12;100.00
38718;BME280;24468;52.128;9.278;2024-01-30T11:55:13;101704.44;;;12.09;100.00
38718;BME280;24468;52.128;9.278;2024-01-30T11:57:39;101708.47;;;12.23;100.00
38718;BME280;24468;52.128;9.278;2024-01-30T12:00:05;101707.94;;;12.39;100.00
38718;BME280;24468;52.128;9.278;2024-01-30T12:02:40;101708.91;;;12.38;100.00
38718;BME280;24468;52.128;9.278;2024-01-30T12:05:06;101707.06;;;12.38;100.00
38718;BME280;24468;52.128;9.278;2024-01-30T12:07:33;101702.59;;;12.64;100.00
38718;BME280;24468;52.128;9.278;2024-01-30T12:09:59;101710.84;;;12.86;100.00
38718;BME280;24468;52.128;9.278;2024-01-30T12:12:26;101703.88;;;12.79;100.00
38718;BME280;24468;52.128;9.278;2024-01-30T12:14:52;101706.56;;;12.54;100.00
38718;BME280;24468;52.128;9.278;2024-01-30T12:17:31;101699.69;;;12.70;100.00
38718;BME280;24468;52.128;9.278;2024-01-30T12:20:23;101704.59;;;12.59;100.00
38718;BME280;24468;52.128;9.278;2024-01-30T12:22:49;101697.22;;;12.89;100.00
38718;BME280;24468;52.128;9.278;2024-01-30T12:25:20;101702.75;;;13.11;100.00
38718;BME280;24468;52.128;9.278;2024-01-30T12:27:48;101704.50;;;13.37;100.00
38718;BME280;24468;52.128;9.278;2024-01-30T12:30:19;101711.00;;;13.56;100.00
38718;BME280;24468;52.128;9.278;2024-01-30T12:32:47;101706.47;;;13.57;100.00
38718;BME280;24468;52.128;9.278;2024-01-30T12:35:18;101708.22;;;13.82;100.00
38718;BME280;24468;52.128;9.278;2024-01-30T12:37:45;101711.97;;;14.01;100.00
38718;BME280;24468;52.128;9.278;2024-01-30T12:40:11;101707.09;;;13.87;100.00
38718;BME280;24468;52.128;9.278;2024-01-30T12:42:43;101698.16;;;13.85;100.00
38718;BME280;24468;52.128;9.278;2024-01-30T12:45:11;101702.47;;;13.67;100.00
38718;BME280;24468;52.128;9.278;2024-01-30T12:47:37;101705.88;;;13.72;100.00